Airport View

Enter AWOS ICAO identifier for current METAR.

ex. KFNL

KPUB 192253Z 11009KT 10SM CLR 14/00 A2993 RMK AO2 SLP127 T01440000

19 Oct 2020 23:53

Frequency: 125.250

Phone: 719-948-2803

Other Area AWOS: KFCS - K1V6 - KCOS - KFLY

TAF KPUB 191731Z 1918/2018 12004KT P6SM BKN200 FM192000 09011G21KT P6SM BKN200 FM200000 07008KT P6SM BKN250 FM200400 34005KT P6SM SCT250 FM200900 28007KT P6SM FEW250